Pagrindinis puslapis
METAR-TAF:

METAR-TAF

Oro uostai :

Celė, Vokietija

platuma: 52-36N, ilguma: 010-01E, Aukštis: 39 m

Dabartinis oras

Ataskaita buvo paskelbta 1 valandą ir 4 minutes, ne 19:20 UTC
Vėjas 1 kt iš Pietvakarių
Temperatūra 11°C
Drėgmė 76%
Slėgis 1026 hPa
Matomumas 10 km arba daugiau

METAR: ETHC 201920Z 23001KT 9999 11/07 Q1026 BLU+

Laikas: 22:24 (20:24 UTC)

Prognozė

Ataskaita buvo paskelbta 10 valandos ir 23 minutes, ne 10:01 UTC
Prognozė galioja nuo 20 metu 08 UTC su 20 metu 17 UTC
Vėjas 5 kt iš Vakarų
Matomumas: 1030 m
Mažai debesys ne aukštis 2500 ft
Su prošvaistėmis ne aukštis 5000 ft
Su prošvaistėmis ne aukštis 30000 ft

TAF: ETHC 201001Z 2008/2017 27005KT 9999 NSW FEW025 BKN050 BKN300 CANCEL 1030

Orai ataskaitas ir orų prognozės (METAR, TAF).

turimą stotys yra geltonos ir raudonos taškus žemėlapyje.

Perkelti pele per norėdami pamatyti stoties vardą.

Tada spustelėkite, norėdami matyti oro stebėjimo ir prognozės.

Norėdami pakeisti žemėlapį: spustelėkite ant žalios mygtukų su juodo kryžiaus žemyn,; žalią mygtuką su brūkšneliu, jei norite nutolinti; arba žalių rodyklių gretimoms žemėlapius.


METAR-TAF: